createdAt,value
2019-05-03T00:00:16.839Z,94725.72
2019-05-03T00:03:12.075Z,94721.91
2019-05-03T00:05:52.382Z,94718.20
2019-05-03T00:08:24.893Z,94725.98
2019-05-03T00:10:57.608Z,94726.28
2019-05-03T00:13:30.279Z,94722.81
2019-05-03T00:16:09.870Z,94726.22
2019-05-03T00:18:42.603Z,94730.12
2019-05-03T00:21:15.320Z,94729.00
2019-05-03T00:23:47.995Z,94724.02
2019-05-03T00:26:22.500Z,94722.50
2019-05-03T00:28:55.301Z,94720.45
2019-05-03T00:31:28.088Z,94718.69
2019-05-03T00:34:05.250Z,94717.88
2019-05-03T00:36:48.659Z,94715.16
2019-05-03T00:39:29.212Z,94716.80
2019-05-03T00:42:02.718Z,94712.64
2019-05-03T00:44:35.623Z,94711.81
2019-05-03T00:47:08.276Z,94715.97
2019-05-03T00:49:42.602Z,94713.02
2019-05-03T00:52:15.408Z,94711.09
2019-05-03T00:54:48.112Z,94720.17
2019-05-03T00:57:22.622Z,94712.64
2019-05-03T00:59:55.495Z,94707.49
2019-05-03T01:02:28.199Z,94707.46
2019-05-03T01:05:03.697Z,94707.44
2019-05-03T01:07:36.483Z,94708.80
2019-05-03T01:10:11.829Z,94703.90
2019-05-03T01:12:44.539Z,94704.48
2019-05-03T01:15:25.095Z,94710.09
2019-05-03T01:17:57.939Z,94709.52
2019-05-03T01:20:31.981Z,94715.03
2019-05-03T01:23:04.736Z,94715.41
2019-05-03T01:25:37.549Z,94712.17
2019-05-03T01:28:12.132Z,94711.13
2019-05-03T01:30:44.656Z,94713.05
2019-05-03T01:33:17.326Z,94715.48
2019-05-03T01:35:51.921Z,94717.72
2019-05-03T01:38:24.963Z,94717.04
2019-05-03T01:40:57.731Z,94714.98
2019-05-03T01:43:31.762Z,94722.16
2019-05-03T01:46:04.665Z,94719.63
2019-05-03T01:48:59.206Z,94718.13
2019-05-03T01:51:56.716Z,94722.98
2019-05-03T01:54:29.474Z,94724.15
2019-05-03T01:57:02.529Z,94722.05
2019-05-03T01:59:35.335Z,94719.11
2019-05-03T02:02:25.560Z,94716.62
2019-05-03T02:05:17.175Z,94719.22
2019-05-03T02:07:51.858Z,94714.60
2019-05-03T02:10:24.337Z,94722.58
2019-05-03T02:12:57.131Z,94714.12
2019-05-03T02:15:29.811Z,94714.90
2019-05-03T02:18:03.150Z,94726.57
2019-05-03T02:20:35.985Z,94716.52
2019-05-03T02:23:08.790Z,94721.09
2019-05-03T02:25:42.010Z,94714.12
2019-05-03T02:28:14.905Z,94714.41
2019-05-03T02:30:47.606Z,94716.56
2019-05-03T02:33:20.320Z,94712.86
2019-05-03T02:35:53.410Z,94716.08
2019-05-03T02:38:27.502Z,94707.48
2019-05-03T02:41:02.677Z,94709.33
2019-05-03T02:43:45.363Z,94714.09
2019-05-03T02:46:36.745Z,94705.55
2019-05-03T02:49:28.290Z,94710.20
2019-05-03T02:52:01.138Z,94711.14
2019-05-03T02:54:35.244Z,94712.44
2019-05-03T02:57:08.089Z,94713.34
2019-05-03T02:59:40.785Z,94704.40
2019-05-03T03:02:15.188Z,94703.59
2019-05-03T03:04:48.148Z,94707.48
2019-05-03T03:07:22.019Z,94710.05
2019-05-03T03:09:56.632Z,94705.99
2019-05-03T03:12:35.405Z,94701.05
2019-05-03T03:15:07.914Z,94699.56
2019-05-03T03:17:45.772Z,94697.61
2019-05-03T03:20:18.392Z,94691.94
2019-05-03T03:22:55.570Z,94701.91
2019-05-03T03:25:36.125Z,94693.56
2019-05-03T03:28:15.726Z,94693.87
2019-05-03T03:31:51.700Z,94703.39
2019-05-03T03:34:29.883Z,94699.69
2019-05-03T03:37:06.507Z,94698.52
2019-05-03T03:39:37.073Z,94694.25
2019-05-03T03:42:10.755Z,94694.36
2019-05-03T03:44:45.466Z,94697.84
2019-05-03T03:47:18.324Z,94701.03
2019-05-03T03:49:52.219Z,94702.66
2019-05-03T03:52:25.685Z,94700.84
2019-05-03T03:55:01.487Z,94700.84
2019-05-03T03:57:37.786Z,94700.67
2019-05-03T04:00:10.974Z,94707.52
2019-05-03T04:02:45.920Z,94700.78
2019-05-03T04:05:18.506Z,94708.98
2019-05-03T04:07:51.517Z,94698.32
2019-05-03T04:10:26.061Z,94701.88
2019-05-03T04:12:59.916Z,94715.47
2019-05-03T04:16:01.085Z,94712.88
2019-05-03T04:19:08.100Z,94715.23
2019-05-03T04:21:40.997Z,94712.22
2019-05-03T04:24:16.292Z,94721.42
2019-05-03T04:26:52.973Z,94723.15
2019-05-03T04:29:26.267Z,94726.09
2019-05-03T04:31:59.060Z,94728.50
2019-05-03T04:34:32.430Z,94733.92
2019-05-03T04:37:05.676Z,94733.05
2019-05-03T04:39:38.629Z,94727.39
2019-05-03T04:42:11.448Z,94736.22
2019-05-03T04:44:45.673Z,94735.20
2019-05-03T04:47:18.648Z,94732.06
2019-05-03T04:49:51.454Z,94742.80
2019-05-03T04:52:25.950Z,94742.70
2019-05-03T04:54:59.807Z,94745.39
2019-05-03T04:57:42.248Z,94746.02
2019-05-03T05:00:11.417Z,94752.88
2019-05-03T05:02:45.599Z,94750.58
2019-05-03T05:05:17.610Z,94749.98
2019-05-03T05:07:50.485Z,94752.25
2019-05-03T05:10:25.722Z,94759.35
2019-05-03T05:12:57.724Z,94755.05
2019-05-03T05:15:30.475Z,94760.23
2019-05-03T05:18:08.890Z,94759.75
2019-05-03T05:20:46.097Z,94763.06
2019-05-03T05:23:18.689Z,94763.13
2019-05-03T05:26:01.289Z,94765.84
2019-05-03T05:28:44.877Z,94771.45
2019-05-03T05:31:17.702Z,94774.71
2019-05-03T05:33:50.486Z,94774.28
2019-05-03T05:36:24.390Z,94768.03
2019-05-03T05:38:57.194Z,94766.25
2019-05-03T05:41:29.929Z,94770.88
2019-05-03T05:44:02.644Z,94775.39
2019-05-03T05:46:42.703Z,94779.42
2019-05-03T05:49:17.477Z,94771.07
2019-05-03T05:51:50.194Z,94775.01
2019-05-03T05:54:24.559Z,94768.56
2019-05-03T05:57:08.528Z,94770.39
2019-05-03T05:59:50.791Z,94770.92
2019-05-03T06:02:25.339Z,94775.70
2019-05-03T06:04:58.168Z,94772.17
2019-05-03T06:07:47.330Z,94775.84
2019-05-03T06:10:29.374Z,94776.72
2019-05-03T06:13:35.921Z,94776.10
2019-05-03T06:16:27.584Z,94768.44
2019-05-03T06:19:08.980Z,94772.11
2019-05-03T06:21:54.869Z,94773.02
2019-05-03T06:24:35.457Z,94774.25
2019-05-03T06:27:27.549Z,94774.48
2019-05-03T06:30:05.073Z,94774.73
2019-05-03T06:32:39.711Z,94780.55
2019-05-03T06:35:12.692Z,94772.63
2019-05-03T06:37:46.566Z,94779.08
2019-05-03T06:40:19.272Z,94779.03
2019-05-03T06:42:54.920Z,94782.74
2019-05-03T06:45:26.849Z,94775.91
2019-05-03T06:47:59.713Z,94784.64
2019-05-03T06:50:32.429Z,94780.53
2019-05-03T06:53:12.285Z,94782.64
2019-05-03T06:55:44.211Z,94783.54
2019-05-03T06:58:15.306Z,94777.53
2019-05-03T07:01:11.344Z,94775.32
2019-05-03T07:04:07.060Z,94777.53
2019-05-03T07:07:07.743Z,94779.13
2019-05-03T07:09:56.189Z,94781.73
2019-05-03T07:12:47.777Z,94776.22
2019-05-03T07:15:20.500Z,94782.33
2019-05-03T07:17:55.419Z,94792.41
2019-05-03T07:20:28.201Z,94789.55
2019-05-03T07:23:01.028Z,94795.34
2019-05-03T07:25:34.485Z,94797.85
2019-05-03T07:28:07.279Z,94791.92
2019-05-03T07:30:40.120Z,94795.39
2019-05-03T07:33:19.236Z,94793.33
2019-05-03T07:35:51.977Z,94789.64
2019-05-03T07:38:25.002Z,94792.23
2019-05-03T07:40:58.010Z,94797.20
2019-05-03T07:43:30.895Z,94796.01
2019-05-03T07:46:05.620Z,94797.67
2019-05-03T07:48:38.633Z,94808.59
2019-05-03T07:51:11.695Z,94813.46
2019-05-03T07:53:45.151Z,94804.15
2019-05-03T07:56:19.505Z,94805.38
2019-05-03T07:59:02.580Z,94810.11
2019-05-03T08:01:35.690Z,94807.80
2019-05-03T08:04:08.619Z,94805.67
2019-05-03T08:06:41.384Z,94804.38
2019-05-03T08:09:15.276Z,94802.65
2019-05-03T08:11:48.279Z,94803.75
2019-05-03T08:14:21.066Z,94811.95
2019-05-03T08:16:54.758Z,94813.34
2019-05-03T08:19:27.814Z,94808.75
2019-05-03T08:22:00.620Z,94812.64
2019-05-03T08:24:34.539Z,94814.48
2019-05-03T08:27:07.615Z,94809.86
2019-05-03T08:29:40.452Z,94818.90
2019-05-03T08:32:38.888Z,94815.95
2019-05-03T08:35:27.196Z,94816.65
2019-05-03T08:38:01.220Z,94813.76
2019-05-03T08:40:38.045Z,94812.19
2019-05-03T08:43:10.861Z,94815.78
2019-05-03T08:45:44.754Z,94814.25
2019-05-03T08:48:17.641Z,94809.33
2019-05-03T08:50:50.501Z,94810.96
2019-05-03T08:53:25.622Z,94812.88
2019-05-03T08:55:57.856Z,94818.59
2019-05-03T08:58:30.835Z,94814.38
2019-05-03T09:01:05.567Z,94819.19
2019-05-03T09:03:38.451Z,94818.87
2019-05-03T09:06:11.449Z,94824.41
2019-05-03T09:08:45.850Z,94823.41
2019-05-03T09:11:30.674Z,94817.37
2019-05-03T09:14:01.838Z,94819.69
2019-05-03T09:16:35.579Z,94817.71
2019-05-03T09:19:08.514Z,94822.11
2019-05-03T09:21:41.477Z,94815.98
2019-05-03T09:24:15.202Z,94823.31
2019-05-03T09:26:48.106Z,94817.98
2019-05-03T09:29:20.986Z,94821.19
2019-05-03T09:31:56.843Z,94821.91
2019-05-03T09:34:29.659Z,94828.19
2019-05-03T09:37:04.601Z,94827.02
2019-05-03T09:39:37.055Z,94833.66
2019-05-03T09:42:09.973Z,94828.97
2019-05-03T09:44:44.921Z,94832.95
2019-05-03T09:47:17.462Z,94834.08
2019-05-03T09:49:50.303Z,94831.04
2019-05-03T09:52:24.993Z,94829.30
2019-05-03T09:54:59.487Z,94832.55
2019-05-03T09:57:32.283Z,94832.99
2019-05-03T10:00:06.092Z,94838.41
2019-05-03T10:02:38.976Z,94834.84
2019-05-03T10:05:11.899Z,94833.05
2019-05-03T10:07:45.957Z,94827.95
2019-05-03T10:10:18.830Z,94821.47
2019-05-03T10:12:52.576Z,94816.36
2019-05-03T10:15:41.186Z,94820.80
2019-05-03T10:18:16.907Z,94810.43
2019-05-03T10:20:49.681Z,94814.77
2019-05-03T10:23:47.293Z,94816.12
2019-05-03T10:26:20.296Z,94813.91
2019-05-03T10:28:53.078Z,94820.80
2019-05-03T10:31:30.070Z,94815.27
2019-05-03T10:34:05.791Z,94824.59
2019-05-03T10:36:38.401Z,94828.02
2019-05-03T10:39:11.624Z,94823.56
2019-05-03T10:41:45.334Z,94824.42
2019-05-03T10:44:18.357Z,94826.11
2019-05-03T10:46:51.178Z,94826.50
2019-05-03T10:49:24.545Z,94828.94
2019-05-03T10:52:01.857Z,94835.63
2019-05-03T10:54:35.775Z,94830.06
2019-05-03T10:57:15.836Z,94827.35
2019-05-03T10:59:48.461Z,94831.07
2019-05-03T11:02:35.110Z,94819.45
2019-05-03T11:05:08.722Z,94830.12
2019-05-03T11:07:41.501Z,94823.98
2019-05-03T11:10:14.803Z,94821.91
2019-05-03T11:12:47.754Z,94819.59
2019-05-03T11:15:20.694Z,94810.85
2019-05-03T11:17:54.930Z,94808.36
2019-05-03T11:20:38.292Z,94813.76
2019-05-03T11:23:11.606Z,94811.90
2019-05-03T11:25:45.376Z,94810.14
2019-05-03T11:28:24.915Z,94809.92
2019-05-03T11:31:02.301Z,94811.72
2019-05-03T11:33:37.213Z,94807.59
2019-05-03T11:36:20.189Z,94803.30
2019-05-03T11:38:56.096Z,94802.87
2019-05-03T11:41:32.884Z,94800.92
2019-05-03T11:44:24.199Z,94792.98
2019-05-03T11:46:56.972Z,94786.13
2019-05-03T11:49:29.743Z,94781.95
2019-05-03T11:52:02.731Z,94788.72
2019-05-03T11:54:36.607Z,94783.23
2019-05-03T11:57:15.954Z,94793.25
2019-05-03T11:59:48.759Z,94783.36
2019-05-03T12:02:39.274Z,94785.87
2019-05-03T12:05:21.626Z,94776.13
2019-05-03T12:07:56.012Z,94780.98
2019-05-03T12:10:46.610Z,94790.67
2019-05-03T12:13:11.643Z,94789.48
2019-05-03T12:15:44.639Z,94790.57
2019-05-03T12:18:18.048Z,94787.20
2019-05-03T12:20:52.423Z,94783.38
2019-05-03T12:23:26.630Z,94788.08
2019-05-03T12:26:00.143Z,94793.05
2019-05-03T12:28:35.238Z,94797.59
2019-05-03T12:31:07.955Z,94786.30
2019-05-03T12:33:40.742Z,94792.25
2019-05-03T12:36:15.444Z,94781.61
2019-05-03T12:38:48.927Z,94787.06
2019-05-03T12:41:21.771Z,94788.64
2019-05-03T12:43:55.232Z,94785.36
2019-05-03T12:46:28.204Z,94788.45
2019-05-03T12:49:01.185Z,94781.91
2019-05-03T12:51:35.310Z,94777.05
2019-05-03T12:54:08.232Z,94775.14
2019-05-03T12:56:41.221Z,94770.08
2019-05-03T12:59:21.146Z,94767.66
2019-05-03T13:02:01.869Z,94768.32
2019-05-03T13:04:36.836Z,94763.69
2019-05-03T13:07:15.959Z,94752.86
2019-05-03T13:09:48.795Z,94758.90
2019-05-03T13:12:25.347Z,94754.17
2019-05-03T13:14:58.205Z,94750.87
2019-05-03T13:17:37.341Z,94755.66
2019-05-03T13:20:14.185Z,94747.66
2019-05-03T13:22:47.105Z,94753.51
2019-05-03T13:25:20.047Z,94745.58
2019-05-03T13:27:54.778Z,94749.81
2019-05-03T13:30:27.791Z,94743.77
2019-05-03T13:33:00.259Z,94739.65
2019-05-03T13:35:35.107Z,94733.88
2019-05-03T13:38:07.750Z,94729.52
2019-05-03T13:40:40.612Z,94723.22
2019-05-03T13:43:15.037Z,94730.94
2019-05-03T13:45:48.232Z,94722.23
2019-05-03T13:48:23.410Z,94724.22
2019-05-03T13:50:55.615Z,94722.08
2019-05-03T13:53:28.421Z,94713.16
2019-05-03T13:56:01.374Z,94717.18
2019-05-03T13:58:38.589Z,94711.39
2019-05-03T14:01:11.404Z,94716.73
2019-05-03T14:03:45.255Z,94712.48
2019-05-03T14:06:17.855Z,94706.76
2019-05-03T14:08:50.685Z,94704.23
2019-05-03T14:11:25.785Z,94703.58
2019-05-03T14:13:58.777Z,94707.56
2019-05-03T14:16:31.635Z,94707.33
2019-05-03T14:19:10.838Z,94699.84
2019-05-03T14:21:48.242Z,94701.17
2019-05-03T14:24:21.041Z,94689.80
2019-05-03T14:26:55.166Z,94692.58
2019-05-03T14:29:31.268Z,94693.81
2019-05-03T14:32:05.309Z,94694.23
2019-05-03T14:34:38.378Z,94691.77
2019-05-03T14:37:11.344Z,94695.94
2019-05-03T14:39:46.775Z,94688.14
2019-05-03T14:42:18.707Z,94688.98
2019-05-03T14:44:55.166Z,94682.95
2019-05-03T14:47:26.365Z,94679.88
2019-05-03T14:49:59.222Z,94678.44
2019-05-03T14:52:32.079Z,94678.83
2019-05-03T14:55:11.595Z,94677.41
2019-05-03T14:57:51.100Z,94677.80
2019-05-03T15:00:31.625Z,94675.26
2019-05-03T15:03:10.126Z,94669.36
2019-05-03T15:05:42.961Z,94666.56
2019-05-03T15:08:15.776Z,94666.67
2019-05-03T15:10:48.583Z,94660.41
2019-05-03T15:13:21.463Z,94652.09
2019-05-03T15:15:56.729Z,94649.42
2019-05-03T15:18:29.515Z,94648.20
2019-05-03T15:21:02.580Z,94646.81
2019-05-03T15:23:35.497Z,94639.90
2019-05-03T15:26:08.403Z,94641.64
2019-05-03T15:28:41.270Z,94635.78
2019-05-03T15:31:14.164Z,94636.88
2019-05-03T15:33:47.116Z,94636.61
2019-05-03T15:36:20.005Z,94633.41
2019-05-03T15:38:55.105Z,94626.86
2019-05-03T15:41:27.418Z,94628.13
2019-05-03T15:44:18.682Z,94625.50
2019-05-03T15:47:09.469Z,94612.53
2019-05-03T15:49:39.931Z,94617.34
2019-05-03T15:52:12.816Z,94609.45
2019-05-03T15:54:48.690Z,94611.13
2019-05-03T15:57:21.750Z,94608.49
2019-05-03T15:59:55.156Z,94609.97
2019-05-03T16:02:28.113Z,94608.78
2019-05-03T16:05:00.882Z,94602.86
2019-05-03T16:07:35.498Z,94595.92
2019-05-03T16:10:08.504Z,94594.63
2019-05-03T16:12:41.328Z,94596.48
2019-05-03T16:15:14.221Z,94585.50
2019-05-03T16:17:47.997Z,94588.94
2019-05-03T16:20:20.832Z,94595.06
2019-05-03T16:22:54.422Z,94597.19
2019-05-03T16:25:27.772Z,94593.78
2019-05-03T16:28:06.351Z,94596.95
2019-05-03T16:30:49.019Z,94590.05
2019-05-03T16:33:27.055Z,94594.40
2019-05-03T16:35:56.740Z,94593.09
2019-05-03T16:38:29.638Z,94595.06
2019-05-03T16:41:02.728Z,94597.25
2019-05-03T16:43:35.606Z,94597.42
2019-05-03T16:46:08.504Z,94592.09
2019-05-03T16:48:41.366Z,94592.31
2019-05-03T16:51:17.442Z,94601.11
2019-05-03T16:53:50.269Z,94601.33
2019-05-03T16:56:24.505Z,94599.61
2019-05-03T16:58:57.380Z,94595.20
2019-05-03T17:01:30.335Z,94598.63
2019-05-03T17:04:36.951Z,94598.17
2019-05-03T17:07:46.787Z,94600.88
2019-05-03T17:10:26.917Z,94601.82
2019-05-03T17:12:59.919Z,94607.83
2019-05-03T17:15:32.740Z,94615.02
2019-05-03T17:18:05.643Z,94615.66
2019-05-03T17:20:38.505Z,94623.94
2019-05-03T17:23:11.461Z,94622.77
2019-05-03T17:25:44.604Z,94623.41
2019-05-03T17:28:17.369Z,94624.80
2019-05-03T17:30:50.262Z,94618.75
2019-05-03T17:33:25.232Z,94620.13
2019-05-03T17:35:57.968Z,94622.27
2019-05-03T17:38:31.722Z,94629.20
2019-05-03T17:41:34.620Z,94627.73
2019-05-03T17:44:17.370Z,94626.13
2019-05-03T17:46:50.191Z,94625.88
2019-05-03T17:49:23.204Z,94626.70
2019-05-03T17:52:14.872Z,94633.67
2019-05-03T17:55:06.603Z,94629.77
2019-05-03T17:58:04.506Z,94629.59
2019-05-03T18:00:46.378Z,94627.15
2019-05-03T18:03:20.108Z,94626.98
2019-05-03T18:06:11.816Z,94642.25
2019-05-03T18:09:04.467Z,94637.98
2019-05-03T18:11:40.349Z,94643.37
2019-05-03T18:14:14.683Z,94636.31
2019-05-03T18:16:47.589Z,94648.13
2019-05-03T18:19:20.446Z,94638.67
2019-05-03T18:21:55.323Z,94643.18
2019-05-03T18:24:27.621Z,94642.84
2019-05-03T18:27:00.378Z,94641.00
2019-05-03T18:29:34.622Z,94647.95
2019-05-03T18:32:07.951Z,94637.93
2019-05-03T18:34:40.681Z,94639.89
2019-05-03T18:37:15.269Z,94638.55
2019-05-03T18:39:48.606Z,94644.03
2019-05-03T18:42:30.775Z,94646.08
2019-05-03T18:45:11.159Z,94647.19
2019-05-03T18:47:45.007Z,94649.53
2019-05-03T18:50:18.945Z,94658.91
2019-05-03T18:52:51.794Z,94663.77
2019-05-03T18:55:25.243Z,94666.09
2019-05-03T18:58:08.706Z,94670.57
2019-05-03T19:00:41.478Z,94672.66
2019-05-03T19:03:14.309Z,94671.70
2019-05-03T19:05:48.863Z,94675.20
2019-05-03T19:08:29.053Z,94676.02
2019-05-03T19:11:10.254Z,94672.99
2019-05-03T19:13:51.863Z,94684.33
2019-05-03T19:16:35.215Z,94689.47
2019-05-03T19:19:09.151Z,94687.78
2019-05-03T19:21:44.986Z,94693.45
2019-05-03T19:24:17.887Z,94694.59
2019-05-03T19:26:50.573Z,94701.95
2019-05-03T19:29:25.030Z,94700.46
2019-05-03T19:31:57.937Z,94695.45
2019-05-03T19:34:30.704Z,94699.34
2019-05-03T19:37:05.136Z,94708.41
2019-05-03T19:40:32.091Z,94713.74
2019-05-03T19:43:05.307Z,94714.85
2019-05-03T19:45:38.371Z,94709.77
2019-05-03T19:48:11.173Z,94717.66
2019-05-03T19:50:44.571Z,94720.92
2019-05-03T19:53:22.341Z,94719.47
2019-05-03T19:55:55.419Z,94721.25
2019-05-03T19:58:28.074Z,94716.59
2019-05-03T20:01:25.683Z,94714.14
2019-05-03T20:04:03.215Z,94713.05
2019-05-03T20:06:45.133Z,94709.84
2019-05-03T20:09:21.805Z,94708.05
2019-05-03T20:11:55.263Z,94716.53
2019-05-03T20:14:28.291Z,94710.22
2019-05-03T20:17:03.978Z,94717.59
2019-05-03T20:19:35.803Z,94714.55
2019-05-03T20:22:08.510Z,94714.43
2019-05-03T20:24:41.281Z,94712.03
2019-05-03T20:27:15.116Z,94710.09
2019-05-03T20:29:47.932Z,94716.74
2019-05-03T20:32:20.709Z,94716.81
2019-05-03T20:34:55.144Z,94711.16
2019-05-03T20:37:27.996Z,94708.56
2019-05-03T20:40:00.822Z,94707.25
2019-05-03T20:42:50.750Z,94709.44
2019-05-03T20:45:27.897Z,94710.02
2019-05-03T20:48:00.651Z,94717.20
2019-05-03T20:50:35.304Z,94707.17
2019-05-03T20:53:08.057Z,94706.44
2019-05-03T20:55:40.863Z,94710.69
2019-05-03T20:58:14.556Z,94710.69
2019-05-03T21:00:47.528Z,94706.86
2019-05-03T21:03:20.310Z,94705.75
2019-05-03T21:05:55.091Z,94712.88
2019-05-03T21:08:27.379Z,94712.88
2019-05-03T21:11:02.005Z,94714.91
2019-05-03T21:13:41.981Z,94706.13
2019-05-03T21:16:34.182Z,94704.73
2019-05-03T21:19:32.170Z,94707.04
2019-05-03T21:22:08.447Z,94704.82
2019-05-03T21:24:46.755Z,94702.69
2019-05-03T21:27:19.574Z,94698.95
2019-05-03T21:29:55.111Z,94701.98
2019-05-03T21:32:27.592Z,94701.24
2019-05-03T21:35:00.705Z,94697.88
2019-05-03T21:37:36.532Z,94694.70
2019-05-03T21:40:10.560Z,94703.58
2019-05-03T21:42:45.161Z,94708.69
2019-05-03T21:45:18.517Z,94710.30
2019-05-03T21:48:04.948Z,94714.44
2019-05-03T21:50:37.830Z,94702.06
2019-05-03T21:56:39.428Z,94703.16
2019-05-03T21:59:11.469Z,94703.62
2019-05-03T22:01:47.107Z,94702.95
2019-05-03T22:04:21.008Z,94695.45
2019-05-03T22:06:54.878Z,94698.45
2019-05-03T22:09:27.819Z,94691.73
2019-05-03T22:12:00.629Z,94695.91
2019-05-03T22:14:38.698Z,94698.98
2019-05-03T22:17:28.237Z,94696.70
2019-05-03T22:20:08.476Z,94690.15
2019-05-03T22:22:59.481Z,94684.31
2019-05-03T22:25:34.900Z,94687.08
2019-05-03T22:28:07.769Z,94694.21
2019-05-03T22:30:40.541Z,94690.15
2019-05-03T22:33:14.490Z,94687.02
2019-05-03T22:35:47.442Z,94684.27
2019-05-03T22:38:20.713Z,94692.11
2019-05-03T22:40:55.294Z,94696.81
2019-05-03T22:43:27.980Z,94689.12
2019-05-03T22:46:00.263Z,94683.16
2019-05-03T22:48:33.044Z,94689.97
2019-05-03T22:51:06.273Z,94685.56
2019-05-03T22:53:38.777Z,94683.34
2019-05-03T22:56:11.733Z,94684.36
2019-05-03T22:58:45.697Z,94684.73
2019-05-03T23:01:18.562Z,94670.23
2019-05-03T23:03:51.760Z,94671.72
2019-05-03T23:06:25.194Z,94674.37
2019-05-03T23:08:58.104Z,94663.30
2019-05-03T23:11:30.970Z,94657.53
2019-05-03T23:14:04.885Z,94653.41
2019-05-03T23:16:38.341Z,94657.16
2019-05-03T23:19:11.140Z,94651.78
2019-05-03T23:21:54.329Z,94651.06
2019-05-03T23:24:27.340Z,94643.20
2019-05-03T23:27:00.284Z,94645.13
2019-05-03T23:29:34.944Z,94634.38
2019-05-03T23:32:07.861Z,94635.68
2019-05-03T23:34:40.859Z,94632.17
2019-05-03T23:37:14.756Z,94625.20
2019-05-03T23:39:47.759Z,94624.02
2019-05-03T23:42:20.807Z,94618.34
2019-05-03T23:44:53.762Z,94617.11
2019-05-03T23:47:45.229Z,94612.13
2019-05-03T23:50:20.206Z,94603.81
2019-05-03T23:52:54.489Z,94600.41
2019-05-03T23:55:41.965Z,94598.96
2019-05-03T23:58:14.747Z,94603.80
